Time;durP1;ratioP1;P1;durP2;ratioP2;P2;SDS_P1;SDS_P2;PMS_P1;PMS_P2;Temp;Humidity;BMP_temperature;BMP_pressure;BME280_temperature;BME280_humidity;BME280_pressure;Samples;Min_cycle;Max_cycle;Signal;HPM_P1;HPM_P2
2022/04/10 00:01:37;;;;;;;2.50;2.30;;;;;;;4.87;75.83;99810.19;4518053;31;20171;-73
2022/04/10 00:04:05;;;;;;;4.03;2.53;;;;;;;4.86;76.02;99805.84;4518091;31;20143;-73
2022/04/10 00:06:32;;;;;;;2.90;2.62;;;;;;;4.77;77.45;99804.06;4518134;31;20111;-72
2022/04/10 00:08:59;;;;;;;4.70;2.70;;;;;;;4.74;77.72;99811.91;4518129;31;20106;-72
2022/04/10 00:11:26;;;;;;;3.05;2.70;;;;;;;4.63;79.08;99801.44;4517882;31;20162;-73
2022/04/10 00:13:53;;;;;;;4.82;3.05;;;;;;;4.55;79.37;99805.75;4518095;31;20083;-72
2022/04/10 00:16:22;;;;;;;2.85;2.65;;;;;;;4.48;80.16;99799.62;4518078;31;20439;-73
2022/04/10 00:18:51;;;;;;;3.62;3.00;;;;;;;4.39;80.33;99798.75;4503032;31;20114;-73
2022/04/10 00:21:18;;;;;;;3.40;2.75;;;;;;;4.36;80.82;99791.78;4517856;31;20465;-72
2022/04/10 00:23:45;;;;;;;3.45;2.50;;;;;;;4.44;79.82;99789.19;4517958;31;20131;-72
2022/04/10 00:26:13;;;;;;;3.20;2.47;;;;;;;4.44;79.85;99787.44;4490076;31;20152;-72
2022/04/10 00:28:41;;;;;;;5.47;2.30;;;;;;;4.45;79.62;99790.94;4517964;31;20460;-72
2022/04/10 00:31:08;;;;;;;2.78;2.50;;;;;;;4.39;79.67;99785.72;4517871;31;20087;-73
2022/04/10 00:33:36;;;;;;;3.45;2.50;;;;;;;4.34;79.62;99784.81;4517742;31;20571;-72
2022/04/10 00:36:04;;;;;;;4.85;2.22;;;;;;;4.37;79.39;99783.09;4517847;31;20407;-72
2022/04/10 00:38:32;;;;;;;3.30;2.03;;;;;;;4.32;79.53;99779.59;4517875;31;20459;-72
2022/04/10 00:40:59;;;;;;;2.42;2.22;;;;;;;4.33;79.68;99783.94;4517830;31;20459;-73
2022/04/10 00:43:32;;;;;;;5.97;2.55;;;;;;;4.28;80.00;99780.47;4502995;31;20092;-72
2022/04/10 00:46:00;;;;;;;3.35;2.67;;;;;;;4.25;80.05;99789.13;4517809;31;20208;-73
2022/04/10 00:48:28;;;;;;;2.60;2.30;;;;;;;4.20;80.48;99790.84;4517740;31;20118;-73
2022/04/10 00:53:44;;;;;;;3.97;2.97;;;;;;;4.11;81.88;99793.41;4517887;31;20211;-72
2022/04/10 00:56:11;;;;;;;3.47;2.90;;;;;;;4.03;82.63;99792.53;4517828;31;20501;-72
2022/04/10 00:58:39;;;;;;;2.70;2.50;;;;;;;4.02;82.79;99801.19;4517276;31;20167;-72
2022/04/10 01:01:07;;;;;;;5.60;2.62;;;;;;;4.00;83.21;99819.44;4517569;31;20129;-73
2022/04/10 01:03:34;;;;;;;4.10;3.30;;;;;;;3.97;83.72;99823.75;4517905;31;20100;-72
2022/04/10 01:06:02;;;;;;;3.55;2.97;;;;;;;3.93;84.26;99822.00;4517707;31;20496;-72
2022/04/10 01:08:31;;;;;;;3.28;3.05;;;;;;;3.93;84.19;99827.22;4502891;31;20356;-72
2022/04/10 01:10:58;;;;;;;6.72;3.17;;;;;;;3.83;85.35;99813.25;4517852;31;20178;-73
2022/04/10 01:13:26;;;;;;;3.80;2.80;;;;;;;3.79;85.24;99825.37;4517749;31;20146;-72
2022/04/10 01:15:54;;;;;;;3.40;3.00;;;;;;;3.84;85.21;99821.06;4517860;31;20083;-72
2022/04/10 01:18:21;;;;;;;4.72;3.08;;;;;;;3.75;85.90;99828.84;4517806;31;20075;-72
2022/04/10 01:20:49;;;;;;;3.87;3.15;;;;;;;3.68;86.38;99826.19;4517784;31;20163;-72
2022/04/10 01:23:18;;;;;;;4.75;3.40;;;;;;;3.63;86.78;99828.72;4517864;31;20419;-72
2022/04/10 01:25:47;;;;;;;3.37;3.08;;;;;;;3.59;86.39;99822.62;4517803;31;20157;-72
2022/04/10 01:28:16;;;;;;;4.80;3.72;;;;;;;3.62;86.53;99821.78;4517769;31;20414;-72
2022/04/10 01:30:44;;;;;;;4.30;3.20;;;;;;;3.57;86.53;99823.50;4517761;31;20117;-72
2022/04/10 01:33:12;;;;;;;4.62;3.30;;;;;;;3.53;86.36;99821.72;4517571;31;20159;-72
2022/04/10 01:35:39;;;;;;;5.68;3.22;;;;;;;3.52;86.48;99840.81;4517401;31;20103;-72
2022/04/10 01:38:11;;;;;;;4.00;3.28;;;;;;;3.51;86.58;99831.25;4517702;31;20095;-72
2022/04/10 01:40:39;;;;;;;3.47;3.08;;;;;;;3.43;86.66;99830.31;4517589;31;20155;-72
2022/04/10 01:43:06;;;;;;;7.93;3.25;;;;;;;3.44;86.94;99838.16;4517367;31;20160;-72
2022/04/10 01:45:34;;;;;;;4.78;3.00;;;;;;;3.40;86.88;99852.00;4517619;31;20107;-72
2022/04/10 01:48:02;;;;;;;5.30;3.17;;;;;;;3.35;87.23;99843.28;4517476;31;20491;-72
2022/04/10 01:50:29;;;;;;;8.20;3.45;;;;;;;3.32;87.68;99843.25;4517280;31;20091;-73
2022/04/10 01:52:57;;;;;;;5.85;3.50;;;;;;;3.27;87.98;99852.75;4517288;31;20091;-72
2022/04/10 01:55:25;;;;;;;4.03;3.15;;;;;;;3.21;88.20;99845.75;4517451;31;20529;-72
2022/04/10 01:57:52;;;;;;;4.10;3.33;;;;;;;3.18;88.16;99853.56;4517373;31;20143;-72
2022/04/10 02:00:19;;;;;;;3.80;3.00;;;;;;;3.12;88.62;99846.56;4517394;31;20162;-72
2022/04/10 02:02:48;;;;;;;3.65;3.12;;;;;;;3.08;89.17;99843.91;4517342;31;20104;-72
2022/04/10 02:05:15;;;;;;;3.37;3.08;;;;;;;3.03;89.00;99848.19;4517185;31;20150;-72
2022/04/10 02:07:42;;;;;;;3.37;3.00;;;;;;;3.00;89.43;99850.75;4517343;31;20158;-72
2022/04/10 02:10:11;;;;;;;3.78;2.85;;;;;;;3.02;89.05;99849.91;4516754;31;20121;-72
2022/04/10 02:12:39;;;;;;;3.83;2.90;;;;;;;2.97;89.42;99838.59;4517029;31;20443;-72
2022/04/10 02:15:07;;;;;;;4.60;3.42;;;;;;;2.95;89.46;99844.66;4517068;31;20411;-72
2022/04/10 02:17:34;;;;;;;7.85;2.60;;;;;;;2.94;89.72;99855.91;4517222;31;20083;-72
2022/04/10 02:20:02;;;;;;;7.55;3.22;;;;;;;2.92;89.65;99857.63;4516881;31;20099;-72
2022/04/10 02:22:29;;;;;;;4.72;3.35;;;;;;;2.92;89.84;99861.09;4516735;31;20536;-72
2022/04/10 02:24:56;;;;;;;3.50;2.92;;;;;;;2.90;89.43;99864.53;4517120;31;20147;-72
2022/04/10 02:27:24;;;;;;;4.15;3.75;;;;;;;2.86;89.89;99853.22;4516889;31;20088;-72
2022/04/10 02:29:52;;;;;;;4.25;3.12;;;;;;;2.84;90.04;99861.00;4516740;31;20737;-72
2022/04/10 02:32:19;;;;;;;6.70;3.00;;;;;;;2.83;90.21;99869.69;4516788;31;20134;-72
2022/04/10 02:34:46;;;;;;;3.62;3.17;;;;;;;2.80;90.15;99873.97;4502077;31;20175;-72
2022/04/10 02:37:14;;;;;;;3.47;3.17;;;;;;;2.81;90.16;99867.91;4516607;31;20084;-72
2022/04/10 02:39:42;;;;;;;5.95;3.40;;;;;;;2.76;90.65;99886.06;4516891;31;20083;-72
2022/04/10 02:42:09;;;;;;;4.00;3.40;;;;;;;2.74;90.67;99874.78;4516778;31;20526;-73
2022/04/10 02:44:36;;;;;;;3.83;3.00;;;;;;;2.73;90.89;99861.75;4516589;31;20111;-72
2022/04/10 02:47:04;;;;;;;5.82;3.62;;;;;;;2.71;90.94;99881.66;4516659;31;20080;-72
2022/04/10 02:49:32;;;;;;;3.22;2.92;;;;;;;2.67;91.42;99879.87;4516526;31;20127;-72
2022/04/10 02:51:59;;;;;;;3.85;3.22;;;;;;;2.63;91.40;99892.84;4516552;31;20397;-72
2022/04/10 02:54:26;;;;;;;4.50;2.90;;;;;;;2.67;91.24;99885.97;4516655;31;20104;-72
2022/04/10 02:56:53;;;;;;;5.45;3.08;;;;;;;2.62;91.76;99893.72;4516483;31;20110;-72
2022/04/10 02:59:20;;;;;;;5.70;3.62;;;;;;;2.64;91.38;99888.53;4516532;31;20117;-72
2022/04/10 03:01:50;;;;;;;4.00;3.37;;;;;;;2.58;91.73;99889.34;4516250;31;20088;-72
2022/04/10 03:04:17;;;;;;;3.90;3.33;;;;;;;2.59;91.68;99898.88;4516230;31;20104;-72
2022/04/10 03:06:45;;;;;;;4.40;3.97;;;;;;;2.61;91.66;99894.59;4516266;31;20400;-72
2022/04/10 03:09:12;;;;;;;5.30;3.87;;;;;;;2.59;91.49;99909.28;4516420;31;20126;-73
2022/04/10 03:11:39;;;;;;;3.53;3.22;;;;;;;2.60;91.76;99910.16;4516220;31;20083;-72
2022/04/10 03:14:07;;;;;;;4.50;3.67;;;;;;;2.63;91.42;99913.66;4516185;31;20108;-73
2022/04/10 03:16:35;;;;;;;4.32;3.90;;;;;;;2.67;91.27;99918.91;4516087;31;20087;-72
2022/04/10 03:19:03;;;;;;;5.40;3.47;;;;;;;2.63;91.36;99912.78;4516188;31;20109;-72
2022/04/10 03:21:30;;;;;;;4.68;3.40;;;;;;;2.63;91.31;99928.41;4515813;31;20112;-72
2022/04/10 03:23:58;;;;;;;6.53;3.95;;;;;;;2.59;91.64;99914.47;4518250;31;20095;-72
2022/04/10 03:26:26;;;;;;;4.60;3.78;;;;;;;2.53;91.97;99919.59;4518560;31;20083;-73
2022/04/10 03:28:53;;;;;;;5.65;3.50;;;;;;;2.49;92.47;99915.22;4518652;31;20120;-72
2022/04/10 03:31:22;;;;;;;4.25;3.50;;;;;;;2.49;92.44;99925.63;4518273;31;20428;-72
2022/04/10 03:33:51;;;;;;;6.85;3.55;;;;;;;2.48;92.56;99929.06;4518576;31;20091;-72
2022/04/10 03:36:18;;;;;;;4.07;3.75;;;;;;;2.43;92.97;99919.44;4518527;31;20435;-72
2022/04/10 03:38:46;;;;;;;3.90;3.55;;;;;;;2.39;93.78;99931.53;4518262;31;20438;-72
2022/04/10 03:41:13;;;;;;;5.57;3.80;;;;;;;2.38;93.52;99943.66;4518373;31;20087;-72
2022/04/10 03:43:40;;;;;;;4.03;3.45;;;;;;;2.32;94.13;99932.31;4518231;31;20125;-72
2022/04/10 03:46:08;;;;;;;5.95;4.45;;;;;;;2.33;94.12;99932.34;4518416;31;20134;-72
2022/04/10 03:48:35;;;;;;;4.47;3.37;;;;;;;2.34;94.06;99936.69;4518298;31;20163;-72
2022/04/10 03:51:02;;;;;;;4.12;3.72;;;;;;;2.35;94.13;99942.75;4518303;31;20527;-72
2022/04/10 03:53:33;;;;;;;6.28;4.28;;;;;;;2.34;94.24;99948.81;4518134;31;20100;-72
2022/04/10 03:56:01;;;;;;;4.93;3.70;;;;;;;2.36;93.98;99941.91;4518375;31;20079;-72
2022/04/10 03:58:29;;;;;;;7.53;4.40;;;;;;;2.33;94.25;99945.34;4518494;31;20095;-72
2022/04/10 04:00:56;;;;;;;6.03;3.97;;;;;;;2.32;94.59;99951.38;4503354;31;20096;-72
2022/04/10 04:03:25;;;;;;;5.95;4.50;;;;;;;2.35;94.35;99954.03;4518276;31;20091;-72
2022/04/10 04:05:53;;;;;;;7.93;4.45;;;;;;;2.31;94.64;99961.75;4518212;31;20091;-72
2022/04/10 04:08:20;;;;;;;5.93;3.90;;;;;;;2.32;94.36;99960.91;4518074;31;20083;-72
2022/04/10 04:10:48;;;;;;;5.62;4.12;;;;;;;2.32;94.53;99966.97;4517925;31;20103;-73
2022/04/10 04:13:15;;;;;;;4.37;3.80;;;;;;;2.32;94.60;99964.38;4517978;31;20111;-72
2022/04/10 04:15:42;;;;;;;6.28;4.35;;;;;;;2.31;94.84;99978.22;4518161;31;20091;-72
2022/04/10 04:18:10;;;;;;;4.20;3.80;;;;;;;2.36;94.49;99988.69;4518178;31;20484;-72
2022/04/10 04:20:37;;;;;;;6.37;3.87;;;;;;;2.34;94.67;99977.41;4512198;31;183811;-72
2022/04/10 04:23:05;;;;;;;5.30;4.22;;;;;;;2.33;94.67;99981.75;4518247;31;20095;-72
2022/04/10 04:25:33;;;;;;;4.20;3.80;;;;;;;2.31;95.07;99983.44;4518022;31;20076;-72
2022/04/10 04:28:00;;;;;;;5.87;4.70;;;;;;;2.34;94.82;99985.22;4518066;31;20386;-72
2022/04/10 04:30:28;;;;;;;6.32;4.47;;;;;;;2.37;94.75;99996.53;4518193;31;20130;-72
2022/04/10 04:32:57;;;;;;;5.37;4.45;;;;;;;2.39;94.60;99996.53;4518171;31;20114;-72
2022/04/10 04:35:24;;;;;;;4.50;4.07;;;;;;;2.44;94.47;99999.19;4518156;31;20428;-72
2022/04/10 04:37:53;;;;;;;6.60;4.07;;;;;;;2.44;94.50;99994.91;4518072;31;20095;-72
2022/04/10 04:40:22;;;;;;;6.35;3.97;;;;;;;2.46;94.25;100006.19;4518009;31;20463;-72
2022/04/10 04:42:50;;;;;;;5.40;4.60;;;;;;;2.48;94.42;100012.28;4518134;31;20552;-72
2022/04/10 04:45:18;;;;;;;5.57;4.57;;;;;;;2.50;94.46;100012.31;4518171;31;20198;-72
2022/04/10 04:47:52;;;;;;;5.70;4.18;;;;;;;2.49;94.59;100014.03;4518295;31;20122;-72
2022/04/10 04:50:20;;;;;;;8.98;4.62;;;;;;;2.53;94.49;100012.34;4518187;31;20163;-72
2022/04/10 04:52:48;;;;;;;4.72;4.18;;;;;;;2.55;94.33;100008.06;4518235;31;20095;-73
2022/04/10 04:55:15;;;;;;;5.53;4.72;;;;;;;2.55;94.41;100013.25;4517930;31;20522;-72
2022/04/10 04:57:42;;;;;;;5.50;4.45;;;;;;;2.62;93.91;100020.28;4518000;31;20099;-72
2022/04/10 05:00:11;;;;;;;5.78;4.60;;;;;;;2.69;93.38;100024.72;4518047;31;20100;-72
2022/04/10 05:02:39;;;;;;;5.45;4.60;;;;;;;2.73;93.15;100034.31;4518011;31;20125;-72
2022/04/10 05:05:07;;;;;;;5.22;4.78;;;;;;;2.79;92.68;100028.31;4517921;31;20087;-72
2022/04/10 05:07:36;;;;;;;9.60;4.95;;;;;;;2.82;92.06;100033.56;4518130;31;20113;-72
2022/04/10 05:10:04;;;;;;;5.30;4.32;;;;;;;2.86;92.25;100038.84;4503122;31;20162;-72
2022/04/10 05:12:34;;;;;;;4.62;4.15;;;;;;;2.99;91.79;100063.28;4517787;31;20419;-72
2022/04/10 05:15:04;;;;;;;5.70;4.60;;;;;;;3.00;90.96;100062.44;4517781;31;20091;-72
2022/04/10 05:17:32;;;;;;;6.18;4.72;;;;;;;3.03;91.54;100051.19;4517808;31;20543;-73
2022/04/10 05:19:59;;;;;;;5.85;4.35;;;;;;;3.03;91.47;100059.00;4517969;31;20163;-72
2022/04/10 05:22:26;;;;;;;6.07;5.07;;;;;;;3.06;91.11;100056.44;4517737;31;20111;-72
2022/04/10 05:25:00;;;;;;;9.43;4.95;;;;;;;3.06;90.99;100059.91;4517935;31;20114;-73
2022/04/10 05:27:32;;;;;;;6.00;4.25;;;;;;;3.08;91.02;100059.97;4517889;31;20083;-72
2022/04/10 05:29:59;;;;;;;6.57;4.75;;;;;;;3.11;90.60;100047.84;4517569;31;20459;-72
2022/04/10 05:32:26;;;;;;;4.85;4.28;;;;;;;3.11;90.64;100073.03;4517673;31;20506;-72
2022/04/10 05:34:54;;;;;;;6.93;4.50;;;;;;;3.16;90.40;100071.34;4517600;31;20083;-72
2022/04/10 05:37:21;;;;;;;5.85;4.30;;;;;;;3.22;90.71;100079.22;4517597;31;20553;-72
2022/04/10 05:39:49;;;;;;;8.73;5.22;;;;;;;3.20;90.15;100073.12;4517746;31;20167;-72
2022/04/10 05:42:17;;;;;;;6.55;4.90;;;;;;;3.17;90.23;100080.87;4517413;31;20163;-72
2022/04/10 05:44:44;;;;;;;8.40;5.93;;;;;;;3.14;89.99;100080.84;4517027;31;20519;-72
2022/04/10 05:47:12;;;;;;;8.70;5.68;;;;;;;3.15;90.37;100074.81;4517167;31;20511;-72
2022/04/10 05:49:39;;;;;;;6.87;5.18;;;;;;;3.19;90.61;100075.72;4517212;31;20171;-72
2022/04/10 05:52:07;;;;;;;5.32;4.82;;;;;;;3.30;89.73;100101.03;4517344;31;20108;-72
2022/04/10 05:54:36;;;;;;;5.28;4.45;;;;;;;3.40;89.64;100085.53;4517317;31;20120;-72
2022/04/10 05:57:04;;;;;;;6.18;4.30;;;;;;;3.54;88.61;100087.44;4517403;31;20158;-72
2022/04/10 05:59:31;;;;;;;5.18;4.32;;;;;;;3.64;87.94;100096.25;4517315;31;20135;-72
2022/04/10 06:01:58;;;;;;;6.78;4.97;;;;;;;3.72;87.54;100107.63;4502327;31;20546;-72
2022/04/10 06:04:26;;;;;;;5.25;4.32;;;;;;;3.82;86.55;100093.84;4517465;31;20075;-72
2022/04/10 06:06:54;;;;;;;8.88;4.30;;;;;;;3.86;86.41;100099.09;4517241;31;20162;-72
2022/04/10 06:09:22;;;;;;;5.25;4.40;;;;;;;3.87;86.28;100100.81;4517292;31;20122;-72
2022/04/10 06:11:49;;;;;;;6.40;4.47;;;;;;;3.93;85.75;100093.06;4517034;31;20121;-72
2022/04/10 06:14:17;;;;;;;10.70;5.00;;;;;;;4.02;85.21;100104.44;4517200;31;20111;-72
2022/04/10 06:16:45;;;;;;;5.05;4.50;;;;;;;4.07;85.60;100101.91;4517154;31;20091;-72
2022/04/10 06:19:13;;;;;;;6.75;4.47;;;;;;;4.19;85.39;100091.59;4517079;31;20092;-72
2022/04/10 06:21:41;;;;;;;5.90;3.90;;;;;;;4.30;84.71;100096.88;4516894;31;20466;-72
2022/04/10 06:24:10;;;;;;;4.53;4.12;;;;;;;4.50;83.69;100099.69;4517237;31;20114;-72
2022/04/10 06:26:38;;;;;;;5.30;4.25;;;;;;;4.58;82.75;100094.50;4517021;31;20099;-72
2022/04/10 06:29:05;;;;;;;5.20;3.87;;;;;;;4.69;83.36;100098.06;4516890;31;20118;-72
2022/04/10 06:31:33;;;;;;;5.47;3.90;;;;;;;4.83;81.86;100095.56;4516981;31;20125;-72
2022/04/10 06:34:00;;;;;;;4.85;4.35;;;;;;;4.93;81.19;100113.03;4516805;31;20080;-72
2022/04/10 06:36:28;;;;;;;4.62;3.97;;;;;;;5.01;80.60;100104.38;4516737;31;20121;-72
2022/04/10 06:38:55;;;;;;;4.80;3.95;;;;;;;5.08;79.89;100107.91;4516972;31;20103;-72
2022/04/10 06:41:23;;;;;;;5.20;4.18;;;;;;;5.20;80.28;100118.44;4516880;31;20104;-72
2022/04/10 06:43:51;;;;;;;4.80;3.75;;;;;;;5.35;78.44;100120.25;4516482;31;20560;-72
2022/04/10 06:46:18;;;;;;;4.62;4.22;;;;;;;5.50;79.27;100122.06;4501731;31;20125;-72
2022/04/10 06:48:47;;;;;;;3.90;3.35;;;;;;;5.80;76.67;100118.69;4516667;31;20443;-72
2022/04/10 06:51:16;;;;;;;4.95;3.70;;;;;;;5.79;77.06;100119.53;4516600;31;20121;-72
2022/04/10 06:53:44;;;;;;;4.05;3.62;;;;;;;5.90;76.12;100112.63;4516684;31;20457;-72
2022/04/10 06:56:11;;;;;;;4.37;3.97;;;;;;;6.16;75.47;100138.00;4516502;31;20099;-72
2022/04/10 06:58:40;;;;;;;5.10;3.37;;;;;;;6.35;73.54;100128.44;4518033;31;20091;-72
2022/04/10 07:01:07;;;;;;;5.53;3.75;;;;;;;6.52;74.10;100129.31;4518870;31;20178;-72
2022/04/10 07:03:36;;;;;;;5.07;3.92;;;;;;;6.59;71.21;100141.53;4518757;31;20092;-73
2022/04/10 07:06:03;;;;;;;4.53;3.60;;;;;;;6.81;71.74;100142.41;4518476;31;20157;-72
2022/04/10 07:08:32;;;;;;;3.70;3.37;;;;;;;6.83;70.60;100138.06;4518406;31;20092;-72
2022/04/10 07:10:59;;;;;;;5.37;3.50;;;;;;;6.96;70.52;100149.37;4518435;31;20092;-70
2022/04/10 07:13:28;;;;;;;3.70;3.25;;;;;;;7.01;68.90;100155.50;4518347;31;20778;-70
2022/04/10 07:15:55;;;;;;;4.10;3.65;;;;;;;7.11;69.05;100156.38;4518335;31;20090;-70
2022/04/10 07:18:23;;;;;;;4.28;3.87;;;;;;;7.05;68.39;100162.47;4518281;31;20158;-70
2022/04/10 07:20:51;;;;;;;3.67;2.85;;;;;;;7.06;68.96;100166.81;4518435;31;20181;-70
2022/04/10 07:26:12;;;;;;;4.50;3.50;;;;;;;6.78;69.57;100175.56;4518718;31;20417;-70
2022/04/10 07:28:40;;;;;;;6.57;3.85;;;;;;;6.83;70.34;100181.69;4518483;31;20178;-70
2022/04/10 07:31:10;;;;;;;11.57;5.95;;;;;;;6.90;69.50;100189.56;4518599;31;20111;-70
2022/04/10 07:33:37;;;;;;;4.10;3.30;;;;;;;7.04;70.25;100181.69;4518035;31;20102;-70
2022/04/10 07:36:06;;;;;;;3.80;3.45;;;;;;;7.36;69.17;100178.16;4518627;31;20121;-70
2022/04/10 07:38:34;;;;;;;5.95;3.80;;;;;;;7.40;67.90;100182.50;4518390;31;20092;-70
2022/04/10 07:41:02;;;;;;;3.60;3.30;;;;;;;7.55;68.83;100184.22;4518359;31;20159;-70
2022/04/10 07:43:30;;;;;;;5.30;3.20;;;;;;;7.41;67.50;100181.62;4518365;31;20431;-70
2022/04/10 07:48:44;;;;;;;8.63;6.45;;;;;;;7.52;68.26;100190.31;4518414;31;20448;-70
2022/04/10 07:51:12;;;;;;;2.90;2.70;;;;;;;7.64;68.72;100192.06;4518297;31;20155;-70
2022/04/10 07:53:41;;;;;;;8.35;5.22;;;;;;;7.74;66.14;100195.50;4518182;31;20142;-70
2022/04/10 07:56:09;;;;;;;5.28;3.33;;;;;;;7.89;67.48;100203.34;4518061;31;20439;-70
2022/04/10 07:58:37;;;;;;;11.93;6.43;;;;;;;7.98;67.41;100205.91;4518045;31;20139;-70
2022/04/10 08:01:08;;;;;;;10.55;5.68;;;;;;;8.12;65.53;100209.34;4518473;31;20214;-70
2022/04/10 08:03:36;;;;;;;10.75;5.43;;;;;;;8.21;65.63;100207.56;4518170;31;20119;-70
2022/04/10 08:06:03;;;;;;;3.47;3.12;;;;;;;8.04;64.78;100210.28;4518254;31;20091;-70
2022/04/10 08:08:30;;;;;;;3.00;2.80;;;;;;;8.19;63.29;100211.94;4518037;31;20474;-70
2022/04/10 08:10:58;;;;;;;7.65;5.32;;;;;;;8.26;62.28;100213.66;4517888;31;20100;-70
2022/04/10 08:13:25;;;;;;;3.33;3.00;;;;;;;8.27;65.11;100212.78;4517936;31;20095;-70
2022/04/10 08:15:53;;;;;;;3.00;2.58;;;;;;;8.40;62.67;100213.63;4517862;31;20560;-70
2022/04/10 08:18:20;;;;;;;6.55;4.12;;;;;;;8.21;62.84;100215.44;4517931;31;20133;-70
2022/04/10 08:20:49;;;;;;;4.40;4.00;;;;;;;8.31;63.59;100218.03;4517781;31;20095;-70
2022/04/10 08:23:17;;;;;;;6.28;4.82;;;;;;;8.27;67.17;100216.28;4518062;31;21122;-70
2022/04/10 08:25:45;;;;;;;5.37;3.53;;;;;;;8.32;63.34;100222.38;4518027;31;20478;-70
2022/04/10 08:28:12;;;;;;;3.50;3.20;;;;;;;8.32;64.06;100216.25;4517979;31;20427;-70
2022/04/10 08:30:40;;;;;;;5.18;3.75;;;;;;;8.33;64.13;100218.84;4517781;31;20099;-70
2022/04/10 08:33:08;;;;;;;4.53;4.03;;;;;;;8.57;64.63;100217.03;4517930;31;20487;-70
2022/04/10 08:35:35;;;;;;;8.38;3.70;;;;;;;8.75;64.05;100216.87;4517675;31;20103;-70
2022/04/10 08:38:02;;;;;;;2.95;2.65;;;;;;;8.79;61.95;100220.37;4517774;31;20484;-70
2022/04/10 08:40:32;;;;;;;3.12;2.50;;;;;;;8.75;60.37;100226.53;4517794;31;20386;-70
2022/04/10 08:43:02;;;;;;;4.47;3.62;;;;;;;8.87;60.26;100213.31;4517748;31;20109;-70
2022/04/10 08:45:30;;;;;;;5.35;2.97;;;;;;;9.18;59.41;100218.31;4517621;31;20169;-70
2022/04/10 08:47:57;;;;;;;2.80;2.40;;;;;;;9.18;58.16;100223.56;4517556;31;20095;-70
2022/04/10 08:50:28;;;;;;;3.80;3.40;;;;;;;9.18;59.20;100220.94;4517686;31;20522;-70
2022/04/10 08:52:57;;;;;;;4.85;3.62;;;;;;;9.19;59.61;100222.69;4517924;31;20870;-70
2022/04/10 08:55:25;;;;;;;6.57;4.10;;;;;;;8.97;59.36;100222.84;4517605;31;20087;-70
2022/04/10 08:57:53;;;;;;;3.53;2.97;;;;;;;8.91;58.75;100224.69;4517547;31;20126;-70
2022/04/10 09:00:22;;;;;;;5.35;3.37;;;;;;;9.04;57.20;100215.78;4517520;31;20095;-70
2022/04/10 09:02:52;;;;;;;5.07;3.37;;;;;;;9.09;52.03;100219.25;4503049;31;20503;-70
2022/04/10 09:05:24;;;;;;;2.70;2.30;;;;;;;9.03;54.96;100219.31;4517688;31;20101;-69
2022/04/10 09:08:11;;;;;;;4.85;2.50;;;;;;;9.25;55.66;100222.63;4517649;31;20480;-70
2022/04/10 09:10:58;;;;;;;;;;;;;;;9.53;55.41;100226.72;4518087;31;20129;-70
2022/04/10 09:13:32;;;;;;;5.53;3.80;;;;;;;9.60;56.46;100238.06;4517935;31;19971;-70
2022/04/10 09:16:07;;;;;;;5.78;3.25;;;;;;;9.48;53.96;100241.69;4517494;31;20098;-70
2022/04/10 09:19:01;;;;;;;3.97;3.47;;;;;;;9.39;53.35;100235.62;4517756;31;20088;-70
2022/04/10 09:21:33;;;;;;;3.35;2.05;;;;;;;9.29;54.05;100225.22;4513929;31;20095;-69
2022/04/10 09:24:02;;;;;;;4.60;2.20;;;;;;;9.78;52.89;100227.31;4517479;31;20695;-69
2022/04/10 09:26:50;;;;;;;3.85;2.70;;;;;;;9.86;52.72;100229.00;4517571;31;20121;-69
2022/04/10 09:29:18;;;;;;;2.45;2.25;;;;;;;9.85;52.76;100235.16;4502864;31;20156;-70
2022/04/10 09:31:47;;;;;;;3.22;2.37;;;;;;;9.55;53.20;100227.59;4517514;31;20099;-70
2022/04/10 09:34:20;;;;;;;5.07;3.65;;;;;;;9.71;52.33;100243.19;4517364;31;20110;-70
2022/04/10 09:37:07;;;;;;;7.05;4.60;;;;;;;9.45;53.29;100238.22;4517576;31;20099;-70
2022/04/10 09:39:37;;;;;;;1.70;1.60;;;;;;;9.90;53.27;100244.75;4517259;31;20461;-69
2022/04/10 09:42:06;;;;;;;4.22;2.87;;;;;;;9.80;51.83;100237.84;4517446;31;20116;-70
2022/04/10 09:44:35;;;;;;;2.40;2.15;;;;;;;9.95;51.22;100242.06;4517287;31;20181;-69
2022/04/10 09:47:07;;;;;;;3.10;2.80;;;;;;;10.31;51.74;100227.59;4517194;31;20100;-70
2022/04/10 09:49:39;;;;;;;2.00;1.90;;;;;;;10.63;49.64;100237.69;4517183;31;20162;-69
2022/04/10 09:52:08;;;;;;;2.92;2.30;;;;;;;10.12;50.46;100262.94;4517310;31;20096;-69
2022/04/10 09:54:46;;;;;;;3.08;2.30;;;;;;;10.14;50.11;100247.97;4517170;31;20087;-69
2022/04/10 09:57:16;;;;;;;1.60;1.50;;;;;;;10.34;50.51;100238.09;4517182;31;20541;-70
2022/04/10 09:59:52;;;;;;;5.93;1.50;;;;;;;10.67;49.83;100238.50;4517071;31;20235;-69
2022/04/10 10:02:23;;;;;;;6.10;2.60;;;;;;;10.55;48.20;100247.47;4517328;31;20109;-70
2022/04/10 10:04:54;;;;;;;2.47;2.28;;;;;;;10.23;50.11;100261.03;4517115;31;20075;-69
2022/04/10 10:07:21;;;;;;;3.33;1.90;;;;;;;10.38;50.38;100265.25;4517051;31;20113;-69
2022/04/10 10:09:49;;;;;;;2.50;2.30;;;;;;;10.18;50.72;100234.78;4517016;31;20155;-70
2022/04/10 10:12:17;;;;;;;4.30;2.37;;;;;;;9.92;49.52;100256.12;4517131;31;20210;-70
2022/04/10 10:14:44;;;;;;;1.87;1.77;;;;;;;10.25;50.90;100247.00;4516881;31;20382;-70
2022/04/10 10:17:12;;;;;;;2.00;1.90;;;;;;;10.34;50.11;100239.88;4517012;31;20087;-69
2022/04/10 10:19:41;;;;;;;4.57;1.92;;;;;;;10.50;49.12;100239.66;4517130;31;20095;-70
2022/04/10 10:22:12;;;;;;;3.87;1.75;;;;;;;10.35;47.74;100249.50;4516983;31;20099;-70
2022/04/10 10:24:50;;;;;;;3.00;2.20;;;;;;;10.42;47.86;100236.22;4516889;31;20091;-69
2022/04/10 10:27:26;;;;;;;3.12;2.28;;;;;;;10.65;48.07;100222.75;4516915;31;20413;-70
2022/04/10 10:30:01;;;;;;;6.03;1.87;;;;;;;10.55;47.77;100246.59;4516665;31;20144;-70
2022/04/10 10:32:41;;;;;;;3.22;2.92;;;;;;;10.65;47.06;100240.31;4518101;31;20155;-70
2022/04/10 10:35:13;;;;;;;3.83;2.58;;;;;;;10.95;48.20;100260.94;4518853;31;20084;-70
2022/04/10 10:37:51;;;;;;;5.80;2.25;;;;;;;10.75;48.38;100245.44;4518722;31;20122;-70
2022/04/10 10:40:19;;;;;;;;;;;;;;;11.02;50.31;100248.53;4519281;31;20477;-70
2022/04/10 10:42:49;;;;;;;3.17;1.87;;;;;;;11.21;47.12;100247.34;4503740;31;20323;-70
2022/04/10 10:45:42;;;;;;;3.58;2.80;;;;;;;11.27;46.11;100237.56;4518645;31;20392;-69
2022/04/10 10:48:31;;;;;;;7.18;4.07;;;;;;;10.71;46.92;100251.66;4518654;31;20423;-70
2022/04/10 10:51:22;;;;;;;2.25;1.83;;;;;;;10.97;47.73;100235.41;4518059;31;20576;-70
2022/04/10 10:53:57;;;;;;;12.93;5.20;;;;;;;11.53;47.91;100250.31;4518710;31;20171;-70
2022/04/10 10:56:32;;;;;;;11.45;5.90;;;;;;;12.26;46.05;100248.03;4518450;31;20079;-70
2022/04/10 10:59:29;;;;;;;6.32;3.60;;;;;;;11.90;46.07;100243.47;4518540;31;20151;-70
2022/04/10 11:02:03;;;;;;;5.93;3.20;;;;;;;11.82;43.61;100234.81;4518569;31;20619;-70
2022/04/10 11:04:44;;;;;;;4.25;2.75;;;;;;;12.28;42.99;100244.47;4518614;31;20095;-70
2022/04/10 11:07:13;;;;;;;4.37;2.72;;;;;;;12.04;43.76;100237.91;4518756;31;20480;-70
2022/04/10 11:09:47;;;;;;;3.12;2.17;;;;;;;12.27;43.36;100242.75;4518459;31;20426;-69
2022/04/10 11:12:15;;;;;;;5.65;2.75;;;;;;;12.53;44.39;100255.38;4518466;31;20163;-70
2022/04/10 11:14:45;;;;;;;5.20;2.90;;;;;;;12.56;42.11;100242.09;4518374;31;20087;-70
2022/04/10 11:17:32;;;;;;;2.25;1.87;;;;;;;12.97;41.66;100240.28;4518573;31;20076;-70
2022/04/10 11:20:07;;;;;;;3.92;2.40;;;;;;;13.40;40.21;100239.25;4518424;31;20525;-68
2022/04/10 11:22:53;;;;;;;2.37;1.50;;;;;;;13.66;39.72;100241.19;4518097;31;20170;-68
2022/04/10 11:25:26;;;;;;;4.72;1.25;;;;;;;13.03;40.27;100257.78;4518529;31;20092;-68
2022/04/10 11:28:04;;;;;;;1.30;1.20;;;;;;;12.55;41.13;100239.50;4518093;31;20132;-68
2022/04/10 11:30:37;;;;;;;1.87;1.20;;;;;;;12.53;41.59;100250.09;4518376;31;20147;-68
2022/04/10 11:33:09;;;;;;;1.08;0.98;;;;;;;12.63;39.83;100240.19;4518353;31;20451;-68
2022/04/10 11:35:46;;;;;;;1.40;1.05;;;;;;;12.64;39.49;100236.63;4518220;31;20092;-68
2022/04/10 11:38:17;;;;;;;1.00;1.00;;;;;;;13.78;38.49;100230.28;4518282;31;20068;-68
2022/04/10 11:40:51;;;;;;;2.80;0.93;;;;;;;14.69;36.57;100236.47;4518336;31;20482;-68
2022/04/10 11:43:21;;;;;;;2.03;1.40;;;;;;;14.98;34.46;100240.87;4517542;31;20103;-68
2022/04/10 11:45:50;;;;;;;1.25;0.90;;;;;;;14.87;34.09;100221.75;4518211;31;20171;-68
2022/04/10 11:48:18;;;;;;;0.82;0.82;;;;;;;16.33;32.84;100222.88;4518134;31;20818;-68
2022/04/10 11:50:45;;;;;;;0.80;0.80;;;;;;;17.58;30.67;100234.69;4518032;31;20538;-68
2022/04/10 11:53:17;;;;;;;15.07;1.30;;;;;;;16.90;30.44;100234.00;4518190;31;20113;-68
2022/04/10 11:55:47;;;;;;;2.70;1.55;;;;;;;16.80;30.48;100230.81;4518028;31;20142;-68